Forside
METAR-TAF:

METAR-TAF

Lufthavne :

Marshfield Municipal Airport

Marshfield, Wisconsin, USA

Breddekreds: 44-38-17N, længdekreds: 090-11-15W, højde: 389 m

Aktuelle vejr

Denne rapport blev lavet for 39 minutter siden, kl. 13:54 UTC
Vind 9 kt fra nord med vindstød på up til 16 kt
Temperatur 8°C
Fugtighed 76%
Tryk 1018 hPa
Sigt: 16.1 km
Brudte skyer i en højde af 1600 ft
Brudte skyer i en højde af 8000 ft

METAR: KMFI 201354Z AUTO 36009G16KT 10SM BKN016 BKN080 08/04 A3007 RMK AO2 SLP189 T00830039 $

Tid: 09:33 (14:33 UTC)


TAF: fraværende

Vejrobservationer og prognoser fra mere end 4000 lufthavne (METAR og TAF).

De gule og røde prikker repræsenterer de meteorologiske stationer.

Flyt musen over at se navnet på stationen.

Så klik over at se vejr observationer og prognoser.

At skifte det kort: Klik på de grønne knapper med et sort kors for at zoome ind; på den grønne knap med en bindestreg for at zoome ud; eller på de grønne pile for tilstødende kort.


METAR-TAF: